CheckWX is a tool to help pilots better visualize weather data.  It is not intended as a substitute for an official pre-flight weather briefing.

05:16:11 UTC

KRKW METAR
Rockwood Municipal Airport
Rockwood, Tennessee, USA
Current

21 mins ago

KRKW 200455Z AUTO 20005KT 10SM CLR 22/19 A3014 RMK A01
Observed
Aug-20 @ 04:55 UTC
Wind
  • 200° at 5 KTS
Visibility
10 SM
Flight Rules
VFR
Cloud Levels
  • Clear skies
Temperature
22°C / 72°F
Dewpoint
19°C / 66°F
Humidity
83%
Altimeter
30.14" Hg
Pressure
1020.62 hPa
Previous

41 mins ago

KRKW 200435Z AUTO 18006KT 10SM CLR 22/19 A3014 RMK A01
Observed
Aug-20 @ 04:35 UTC
Wind
  • 180° at 6 KTS
Visibility
10 SM
Flight Rules
VFR
Cloud Levels
  • Clear skies
Temperature
22°C / 72°F
Dewpoint
19°C / 66°F
Humidity
83%
Altimeter
30.14" Hg
Pressure
1020.62 hPa
Previous

1 hour ago

KRKW 200415Z AUTO 24004KT 10SM CLR 23/20 A3014 RMK A01
Observed
Aug-20 @ 04:15 UTC
Wind
  • 240° at 4 KTS
Visibility
10 SM
Flight Rules
VFR
Cloud Levels
  • Clear skies
Temperature
23°C / 73°F
Dewpoint
20°C / 68°F
Humidity
83%
Altimeter
30.14" Hg
Pressure
1020.62 hPa